sensor_id;sensor_type;location;lat;lon;timestamp;pressure;altitude;pressure_sealevel;temperature
62107;BMP280;48087;32.600;-97.100;2022-07-01T00:02:44;;;;38.166285
62107;BMP280;48087;32.600;-97.100;2022-07-01T00:07:48;;;;38.166285
62107;BMP280;48087;32.600;-97.100;2022-07-01T00:12:52;;;;37.7774
62107;BMP280;48087;32.600;-97.100;2022-07-01T00:17:57;;;;37.721845
62107;BMP280;48087;32.600;-97.100;2022-07-01T00:23:00;;;;37.721845
62107;BMP280;48087;32.600;-97.100;2022-07-01T00:28:04;;;;37.721845
62107;BMP280;48087;32.600;-97.100;2022-07-01T00:33:09;;;;37.55517999999999
62107;BMP280;48087;32.600;-97.100;2022-07-01T00:38:12;;;;36.388525
62107;BMP280;48087;32.600;-97.100;2022-07-01T00:43:15;;;;36.555189999999996
62107;BMP280;48087;32.600;-97.100;2022-07-01T00:48:21;;;;36.22186
62107;BMP280;48087;32.600;-97.100;2022-07-01T00:53:25;;;;35.33298
62107;BMP280;48087;32.600;-97.100;2022-07-01T00:58:29;;;;34.88854
62107;BMP280;48087;32.600;-97.100;2022-07-01T01:03:31;;;;34.4441
62107;BMP280;48087;32.600;-97.100;2022-07-01T01:08:36;;;;34.166325
62107;BMP280;48087;32.600;-97.100;2022-07-01T01:13:40;;;;33.77744
62107;BMP280;48087;32.600;-97.100;2022-07-01T01:18:44;;;;33.499665
62107;BMP280;48087;32.600;-97.100;2022-07-01T01:23:47;;;;33.277445
62107;BMP280;48087;32.600;-97.100;2022-07-01T01:28:52;;;;32.944115
62107;BMP280;48087;32.600;-97.100;2022-07-01T01:33:55;;;;32.721895
62107;BMP280;48087;32.600;-97.100;2022-07-01T01:39:00;;;;32.499674999999996
62107;BMP280;48087;32.600;-97.100;2022-07-01T01:44:03;;;;32.444120000000005
62107;BMP280;48087;32.600;-97.100;2022-07-01T01:49:08;;;;32.388565
62107;BMP280;48087;32.600;-97.100;2022-07-01T01:54:12;;;;32.277454999999996
62107;BMP280;48087;32.600;-97.100;2022-07-01T01:59:16;;;;31.999679999999998
62107;BMP280;48087;32.600;-97.100;2022-07-01T02:04:20;;;;32.055235
62107;BMP280;48087;32.600;-97.100;2022-07-01T02:09:25;;;;31.88857
62107;BMP280;48087;32.600;-97.100;2022-07-01T02:14:27;;;;31.721904999999996
62107;BMP280;48087;32.600;-97.100;2022-07-01T02:19:31;;;;31.499685
62107;BMP280;48087;32.600;-97.100;2022-07-01T02:24:35;;;;31.33302
62107;BMP280;48087;32.600;-97.100;2022-07-01T02:29:40;;;;31.166354999999996
62107;BMP280;48087;32.600;-97.100;2022-07-01T02:34:43;;;;31.166354999999996
62107;BMP280;48087;32.600;-97.100;2022-07-01T02:39:48;;;;31.055245000000003
62107;BMP280;48087;32.600;-97.100;2022-07-01T02:44:51;;;;31.055245000000003
62107;BMP280;48087;32.600;-97.100;2022-07-01T02:49:55;;;;31.055245000000003
62107;BMP280;48087;32.600;-97.100;2022-07-01T02:55:00;;;;30.999689999999998
62107;BMP280;48087;32.600;-97.100;2022-07-01T03:00:05;;;;30.944135
62107;BMP280;48087;32.600;-97.100;2022-07-01T03:05:07;;;;30.944135
62107;BMP280;48087;32.600;-97.100;2022-07-01T03:10:11;;;;30.833025
62107;BMP280;48087;32.600;-97.100;2022-07-01T03:15:15;;;;30.77747
62107;BMP280;48087;32.600;-97.100;2022-07-01T03:20:19;;;;30.721915
62107;BMP280;48087;32.600;-97.100;2022-07-01T03:25:25;;;;30.55525
62107;BMP280;48087;32.600;-97.100;2022-07-01T03:30:27;;;;30.499695000000003
62107;BMP280;48087;32.600;-97.100;2022-07-01T03:35:32;;;;30.444139999999997
62107;BMP280;48087;32.600;-97.100;2022-07-01T03:40:35;;;;30.333029999999997
62107;BMP280;48087;32.600;-97.100;2022-07-01T03:45:40;;;;30.333029999999997
62107;BMP280;48087;32.600;-97.100;2022-07-01T03:50:43;;;;30.277475
62107;BMP280;48087;32.600;-97.100;2022-07-01T03:55:47;;;;30.166365
62107;BMP280;48087;32.600;-97.100;2022-07-01T04:00:51;;;;30.11081
62107;BMP280;48087;32.600;-97.100;2022-07-01T04:05:56;;;;30.055254999999995
62107;BMP280;48087;32.600;-97.100;2022-07-01T04:10:59;;;;29.944145000000002
62107;BMP280;48087;32.600;-97.100;2022-07-01T04:16:04;;;;29.833035000000002
62107;BMP280;48087;32.600;-97.100;2022-07-01T04:21:06;;;;29.777479999999997
62107;BMP280;48087;32.600;-97.100;2022-07-01T04:26:11;;;;29.721925
62107;BMP280;48087;32.600;-97.100;2022-07-01T04:31:15;;;;29.610815
62107;BMP280;48087;32.600;-97.100;2022-07-01T04:36:19;;;;29.499704999999995
62107;BMP280;48087;32.600;-97.100;2022-07-01T04:41:23;;;;29.388595000000002
62107;BMP280;48087;32.600;-97.100;2022-07-01T04:46:27;;;;29.277485000000002
62107;BMP280;48087;32.600;-97.100;2022-07-01T04:51:30;;;;29.221929999999997
62107;BMP280;48087;32.600;-97.100;2022-07-01T04:56:35;;;;29.166375
62107;BMP280;48087;32.600;-97.100;2022-07-01T05:01:40;;;;28.8886
62107;BMP280;48087;32.600;-97.100;2022-07-01T05:06:43;;;;28.777489999999997
62107;BMP280;48087;32.600;-97.100;2022-07-01T05:11:47;;;;28.666379999999997
62107;BMP280;48087;32.600;-97.100;2022-07-01T05:16:52;;;;28.610825
62107;BMP280;48087;32.600;-97.100;2022-07-01T05:21:55;;;;28.499715
62107;BMP280;48087;32.600;-97.100;2022-07-01T05:27:00;;;;28.33305
62107;BMP280;48087;32.600;-97.100;2022-07-01T05:32:03;;;;28.221939999999996
62107;BMP280;48087;32.600;-97.100;2022-07-01T05:37:07;;;;28.166385000000002
62107;BMP280;48087;32.600;-97.100;2022-07-01T05:42:11;;;;28.110829999999996
62107;BMP280;48087;32.600;-97.100;2022-07-01T05:47:15;;;;27.999720000000003
62107;BMP280;48087;32.600;-97.100;2022-07-01T05:52:18;;;;27.944164999999998
62107;BMP280;48087;32.600;-97.100;2022-07-01T05:57:23;;;;27.7775
62107;BMP280;48087;32.600;-97.100;2022-07-01T06:02:26;;;;27.721945
62107;BMP280;48087;32.600;-97.100;2022-07-01T06:07:31;;;;27.666389999999996
62107;BMP280;48087;32.600;-97.100;2022-07-01T06:12:35;;;;27.499724999999998
62107;BMP280;48087;32.600;-97.100;2022-07-01T06:17:39;;;;27.33306
62107;BMP280;48087;32.600;-97.100;2022-07-01T06:22:43;;;;27.277504999999998
62107;BMP280;48087;32.600;-97.100;2022-07-01T06:27:47;;;;27.166395
62107;BMP280;48087;32.600;-97.100;2022-07-01T06:32:50;;;;27.055285
62107;BMP280;48087;32.600;-97.100;2022-07-01T06:37:55;;;;26.999729999999996
62107;BMP280;48087;32.600;-97.100;2022-07-01T06:42:59;;;;26.833064999999998
62107;BMP280;48087;32.600;-97.100;2022-07-01T06:48:03;;;;26.721954999999998
62107;BMP280;48087;32.600;-97.100;2022-07-01T06:53:07;;;;26.6664
62107;BMP280;48087;32.600;-97.100;2022-07-01T06:58:11;;;;26.499735
62107;BMP280;48087;32.600;-97.100;2022-07-01T07:03:15;;;;26.444179999999996
62107;BMP280;48087;32.600;-97.100;2022-07-01T07:08:19;;;;26.388625
62107;BMP280;48087;32.600;-97.100;2022-07-01T07:13:23;;;;26.277514999999998
62107;BMP280;48087;32.600;-97.100;2022-07-01T07:18:26;;;;26.166404999999997
62107;BMP280;48087;32.600;-97.100;2022-07-01T07:23:30;;;;26.166404999999997
62107;BMP280;48087;32.600;-97.100;2022-07-01T07:28:35;;;;25.99974
62107;BMP280;48087;32.600;-97.100;2022-07-01T07:33:38;;;;25.888629999999996
62107;BMP280;48087;32.600;-97.100;2022-07-01T07:38:42;;;;25.833075
62107;BMP280;48087;32.600;-97.100;2022-07-01T07:43:46;;;;25.777520000000003
62107;BMP280;48087;32.600;-97.100;2022-07-01T07:48:51;;;;25.721964999999997
62107;BMP280;48087;32.600;-97.100;2022-07-01T07:53:54;;;;25.721964999999997
62107;BMP280;48087;32.600;-97.100;2022-07-01T07:58:58;;;;25.666410000000003
62107;BMP280;48087;32.600;-97.100;2022-07-01T08:04:03;;;;25.5553
62107;BMP280;48087;32.600;-97.100;2022-07-01T08:09:06;;;;25.499745000000004
62107;BMP280;48087;32.600;-97.100;2022-07-01T08:14:13;;;;25.388635
62107;BMP280;48087;32.600;-97.100;2022-07-01T08:19:14;;;;25.277525
62107;BMP280;48087;32.600;-97.100;2022-07-01T08:24:18;;;;25.221970000000002
62107;BMP280;48087;32.600;-97.100;2022-07-01T08:29:22;;;;25.166414999999997
62107;BMP280;48087;32.600;-97.100;2022-07-01T08:34:26;;;;25.055304999999997
62107;BMP280;48087;32.600;-97.100;2022-07-01T08:39:30;;;;25.055304999999997
62107;BMP280;48087;32.600;-97.100;2022-07-01T08:44:34;;;;24.99975
62107;BMP280;48087;32.600;-97.100;2022-07-01T08:49:38;;;;24.944195000000004
62107;BMP280;48087;32.600;-97.100;2022-07-01T08:54:42;;;;24.777529999999995
62107;BMP280;48087;32.600;-97.100;2022-07-01T09:00:00;;;;24.721975
62107;BMP280;48087;32.600;-97.100;2022-07-01T09:04:51;;;;24.721975
62107;BMP280;48087;32.600;-97.100;2022-07-01T09:09:54;;;;24.610864999999997
62107;BMP280;48087;32.600;-97.100;2022-07-01T09:14:59;;;;24.499754999999997
62107;BMP280;48087;32.600;-97.100;2022-07-01T09:20:02;;;;24.499754999999997
62107;BMP280;48087;32.600;-97.100;2022-07-01T09:25:12;;;;24.388645000000004
62107;BMP280;48087;32.600;-97.100;2022-07-01T09:30:10;;;;24.388645000000004
62107;BMP280;48087;32.600;-97.100;2022-07-01T09:35:17;;;;24.33309
62107;BMP280;48087;32.600;-97.100;2022-07-01T09:40:18;;;;24.221979999999995
62107;BMP280;48087;32.600;-97.100;2022-07-01T09:45:22;;;;24.166425
62107;BMP280;48087;32.600;-97.100;2022-07-01T09:50:26;;;;24.110870000000002
62107;BMP280;48087;32.600;-97.100;2022-07-01T09:55:31;;;;24.110870000000002
62107;BMP280;48087;32.600;-97.100;2022-07-01T10:00:35;;;;23.999760000000002
62107;BMP280;48087;32.600;-97.100;2022-07-01T10:05:41;;;;23.88865
62107;BMP280;48087;32.600;-97.100;2022-07-01T10:10:44;;;;23.77754
62107;BMP280;48087;32.600;-97.100;2022-07-01T10:15:46;;;;23.721985
62107;BMP280;48087;32.600;-97.100;2022-07-01T10:20:50;;;;23.721985
62107;BMP280;48087;32.600;-97.100;2022-07-01T10:26:01;;;;23.610875
62107;BMP280;48087;32.600;-97.100;2022-07-01T10:31:00;;;;23.499764999999996
62107;BMP280;48087;32.600;-97.100;2022-07-01T10:36:04;;;;23.499764999999996
62107;BMP280;48087;32.600;-97.100;2022-07-01T10:41:18;;;;23.388654999999996
62107;BMP280;48087;32.600;-97.100;2022-07-01T10:46:10;;;;23.388654999999996
62107;BMP280;48087;32.600;-97.100;2022-07-01T10:51:14;;;;23.333099999999998
62107;BMP280;48087;32.600;-97.100;2022-07-01T10:56:23;;;;23.221989999999998
62107;BMP280;48087;32.600;-97.100;2022-07-01T11:01:24;;;;23.166435
62107;BMP280;48087;32.600;-97.100;2022-07-01T11:06:26;;;;23.110879999999998
62107;BMP280;48087;32.600;-97.100;2022-07-01T11:11:29;;;;22.99977
62107;BMP280;48087;32.600;-97.100;2022-07-01T11:16:33;;;;22.777549999999998
62107;BMP280;48087;32.600;-97.100;2022-07-01T11:21:38;;;;22.833104999999996
62107;BMP280;48087;32.600;-97.100;2022-07-01T11:26:42;;;;22.833104999999996
62107;BMP280;48087;32.600;-97.100;2022-07-01T11:31:47;;;;22.88866
62107;BMP280;48087;32.600;-97.100;2022-07-01T11:36:49;;;;22.944214999999996
62107;BMP280;48087;32.600;-97.100;2022-07-01T11:41:55;;;;22.99977
62107;BMP280;48087;32.600;-97.100;2022-07-01T11:46:58;;;;22.99977
62107;BMP280;48087;32.600;-97.100;2022-07-01T11:52:02;;;;23.055325
62107;BMP280;48087;32.600;-97.100;2022-07-01T11:57:08;;;;23.110879999999998
62107;BMP280;48087;32.600;-97.100;2022-07-01T12:02:11;;;;23.110879999999998
62107;BMP280;48087;32.600;-97.100;2022-07-01T12:07:14;;;;23.166435
62107;BMP280;48087;32.600;-97.100;2022-07-01T12:12:18;;;;23.277545000000003
62107;BMP280;48087;32.600;-97.100;2022-07-01T12:17:21;;;;23.333099999999998
62107;BMP280;48087;32.600;-97.100;2022-07-01T12:22:26;;;;23.388654999999996
62107;BMP280;48087;32.600;-97.100;2022-07-01T12:27:32;;;;23.44421
62107;BMP280;48087;32.600;-97.100;2022-07-01T12:32:34;;;;23.610875
62107;BMP280;48087;32.600;-97.100;2022-07-01T12:37:37;;;;23.77754
62107;BMP280;48087;32.600;-97.100;2022-07-01T12:42:43;;;;24.055314999999997
62107;BMP280;48087;32.600;-97.100;2022-07-01T12:47:46;;;;24.4442
62107;BMP280;48087;32.600;-97.100;2022-07-01T12:52:58;;;;24.721975
62107;BMP280;48087;32.600;-97.100;2022-07-01T12:57:55;;;;24.944195000000004
62107;BMP280;48087;32.600;-97.100;2022-07-01T13:02:58;;;;25.277525
62107;BMP280;48087;32.600;-97.100;2022-07-01T13:08:01;;;;25.44419
62107;BMP280;48087;32.600;-97.100;2022-07-01T13:13:06;;;;25.721964999999997
62107;BMP280;48087;32.600;-97.100;2022-07-01T13:18:09;;;;25.777520000000003
62107;BMP280;48087;32.600;-97.100;2022-07-01T13:23:14;;;;25.944185
62107;BMP280;48087;32.600;-97.100;2022-07-01T13:28:18;;;;26.610845
62107;BMP280;48087;32.600;-97.100;2022-07-01T13:33:22;;;;26.444179999999996
62107;BMP280;48087;32.600;-97.100;2022-07-01T13:38:26;;;;26.944174999999998
62107;BMP280;48087;32.600;-97.100;2022-07-01T13:43:29;;;;26.721954999999998
62107;BMP280;48087;32.600;-97.100;2022-07-01T13:48:33;;;;27.499724999999998
62107;BMP280;48087;32.600;-97.100;2022-07-01T13:53:38;;;;27.444170000000003
62107;BMP280;48087;32.600;-97.100;2022-07-01T13:58:42;;;;27.388614999999998
62107;BMP280;48087;32.600;-97.100;2022-07-01T14:03:46;;;;27.499724999999998
62107;BMP280;48087;32.600;-97.100;2022-07-01T14:08:49;;;;28.221939999999996
62107;BMP280;48087;32.600;-97.100;2022-07-01T14:13:54;;;;27.999720000000003
62107;BMP280;48087;32.600;-97.100;2022-07-01T14:18:57;;;;28.388604999999995
62107;BMP280;48087;32.600;-97.100;2022-07-01T14:24:02;;;;28.777489999999997
62107;BMP280;48087;32.600;-97.100;2022-07-01T14:29:05;;;;29.110820000000004
62107;BMP280;48087;32.600;-97.100;2022-07-01T14:34:09;;;;29.55526
62107;BMP280;48087;32.600;-97.100;2022-07-01T14:39:13;;;;28.277495000000002
62107;BMP280;48087;32.600;-97.100;2022-07-01T14:44:17;;;;29.333039999999997
62107;BMP280;48087;32.600;-97.100;2022-07-01T14:49:21;;;;29.44415
62107;BMP280;48087;32.600;-97.100;2022-07-01T14:54:26;;;;30.166365
62107;BMP280;48087;32.600;-97.100;2022-07-01T14:59:29;;;;28.833045000000002
62107;BMP280;48087;32.600;-97.100;2022-07-01T15:04:33;;;;29.277485000000002
62107;BMP280;48087;32.600;-97.100;2022-07-01T15:09:36;;;;29.777479999999997
62107;BMP280;48087;32.600;-97.100;2022-07-01T15:14:41;;;;30.444139999999997
62107;BMP280;48087;32.600;-97.100;2022-07-01T15:19:44;;;;29.888589999999997
62107;BMP280;48087;32.600;-97.100;2022-07-01T15:24:50;;;;30.610804999999996
62107;BMP280;48087;32.600;-97.100;2022-07-01T15:29:53;;;;30.721915
62107;BMP280;48087;32.600;-97.100;2022-07-01T15:34:56;;;;30.499695000000003
62107;BMP280;48087;32.600;-97.100;2022-07-01T15:40:01;;;;31.055245000000003
62107;BMP280;48087;32.600;-97.100;2022-07-01T15:45:06;;;;31.277465
62107;BMP280;48087;32.600;-97.100;2022-07-01T15:50:11;;;;31.055245000000003
62107;BMP280;48087;32.600;-97.100;2022-07-01T15:55:14;;;;31.110799999999998
62107;BMP280;48087;32.600;-97.100;2022-07-01T16:00:17;;;;30.944135
62107;BMP280;48087;32.600;-97.100;2022-07-01T16:05:21;;;;30.833025
62107;BMP280;48087;32.600;-97.100;2022-07-01T16:10:29;;;;32.2219
62107;BMP280;48087;32.600;-97.100;2022-07-01T16:15:28;;;;32.2219
62107;BMP280;48087;32.600;-97.100;2022-07-01T16:20:33;;;;33.055225
62107;BMP280;48087;32.600;-97.100;2022-07-01T16:25:38;;;;31.999679999999998
62107;BMP280;48087;32.600;-97.100;2022-07-01T16:30:40;;;;32.99967
62107;BMP280;48087;32.600;-97.100;2022-07-01T16:35:47;;;;33.11078
62107;BMP280;48087;32.600;-97.100;2022-07-01T16:40:49;;;;32.33301
62107;BMP280;48087;32.600;-97.100;2022-07-01T16:45:53;;;;32.99967
62107;BMP280;48087;32.600;-97.100;2022-07-01T16:50:56;;;;33.388555
62107;BMP280;48087;32.600;-97.100;2022-07-01T16:56:02;;;;33.333
62107;BMP280;48087;32.600;-97.100;2022-07-01T17:01:05;;;;33.666329999999995
62107;BMP280;48087;32.600;-97.100;2022-07-01T17:06:09;;;;34.166325
62107;BMP280;48087;32.600;-97.100;2022-07-01T17:11:13;;;;34.11077
62107;BMP280;48087;32.600;-97.100;2022-07-01T17:16:17;;;;32.77745
62107;BMP280;48087;32.600;-97.100;2022-07-01T17:21:21;;;;33.221889999999995
62107;BMP280;48087;32.600;-97.100;2022-07-01T17:26:25;;;;33.555220000000006
62107;BMP280;48087;32.600;-97.100;2022-07-01T17:31:30;;;;33.555220000000006
62107;BMP280;48087;32.600;-97.100;2022-07-01T17:36:33;;;;33.99966
62107;BMP280;48087;32.600;-97.100;2022-07-01T17:41:38;;;;34.388545
62107;BMP280;48087;32.600;-97.100;2022-07-01T17:46:41;;;;34.388545
62107;BMP280;48087;32.600;-97.100;2022-07-01T17:51:45;;;;34.22188
62107;BMP280;48087;32.600;-97.100;2022-07-01T17:56:49;;;;34.66632
62107;BMP280;48087;32.600;-97.100;2022-07-01T18:01:53;;;;34.99965
62107;BMP280;48087;32.600;-97.100;2022-07-01T18:06:56;;;;34.4441
62107;BMP280;48087;32.600;-97.100;2022-07-01T18:12:05;;;;34.277435000000004
62107;BMP280;48087;32.600;-97.100;2022-07-01T18:17:06;;;;35.5552
62107;BMP280;48087;32.600;-97.100;2022-07-01T18:22:10;;;;34.832985
62107;BMP280;48087;32.600;-97.100;2022-07-01T18:27:12;;;;35.888529999999996
62107;BMP280;48087;32.600;-97.100;2022-07-01T18:32:17;;;;36.166304999999994
62107;BMP280;48087;32.600;-97.100;2022-07-01T18:37:20;;;;36.88852
62107;BMP280;48087;32.600;-97.100;2022-07-01T18:42:25;;;;36.944075
62107;BMP280;48087;32.600;-97.100;2022-07-01T18:47:28;;;;36.388525
62107;BMP280;48087;32.600;-97.100;2022-07-01T18:52:32;;;;37.388515
62107;BMP280;48087;32.600;-97.100;2022-07-01T18:57:37;;;;37.721845
62107;BMP280;48087;32.600;-97.100;2022-07-01T19:02:41;;;;36.166304999999994
62107;BMP280;48087;32.600;-97.100;2022-07-01T19:07:44;;;;36.999629999999996
62107;BMP280;48087;32.600;-97.100;2022-07-01T19:12:49;;;;37.11074
62107;BMP280;48087;32.600;-97.100;2022-07-01T19:17:52;;;;37.55517999999999
62107;BMP280;48087;32.600;-97.100;2022-07-01T19:22:56;;;;36.77741
62107;BMP280;48087;32.600;-97.100;2022-07-01T19:28:00;;;;37.277404999999995
62107;BMP280;48087;32.600;-97.100;2022-07-01T19:33:05;;;;35.832975
62107;BMP280;48087;32.600;-97.100;2022-07-01T19:38:08;;;;35.5552
62107;BMP280;48087;32.600;-97.100;2022-07-01T19:43:13;;;;36.721855
62107;BMP280;48087;32.600;-97.100;2022-07-01T19:48:16;;;;37.055185
62107;BMP280;48087;32.600;-97.100;2022-07-01T19:53:20;;;;36.166304999999994
62107;BMP280;48087;32.600;-97.100;2022-07-01T19:58:25;;;;35.33298
62107;BMP280;48087;32.600;-97.100;2022-07-01T20:03:28;;;;36.610745
62107;BMP280;48087;32.600;-97.100;2022-07-01T20:08:32;;;;37.66629
62107;BMP280;48087;32.600;-97.100;2022-07-01T20:13:36;;;;36.610745
62107;BMP280;48087;32.600;-97.100;2022-07-01T20:18:41;;;;36.610745
62107;BMP280;48087;32.600;-97.100;2022-07-01T20:23:44;;;;36.721855
62107;BMP280;48087;32.600;-97.100;2022-07-01T20:28:48;;;;37.66629
62107;BMP280;48087;32.600;-97.100;2022-07-01T20:33:52;;;;37.66629
62107;BMP280;48087;32.600;-97.100;2022-07-01T20:38:56;;;;38.11073
62107;BMP280;48087;32.600;-97.100;2022-07-01T20:44:01;;;;38.33295
62107;BMP280;48087;32.600;-97.100;2022-07-01T20:49:04;;;;36.499635
62107;BMP280;48087;32.600;-97.100;2022-07-01T20:54:08;;;;37.388515
62107;BMP280;48087;32.600;-97.100;2022-07-01T20:59:12;;;;38.11073
62107;BMP280;48087;32.600;-97.100;2022-07-01T21:04:16;;;;37.055185
62107;BMP280;48087;32.600;-97.100;2022-07-01T21:09:19;;;;37.221849999999996
62107;BMP280;48087;32.600;-97.100;2022-07-01T21:14:25;;;;37.221849999999996
62107;BMP280;48087;32.600;-97.100;2022-07-01T21:19:28;;;;37.055185
62107;BMP280;48087;32.600;-97.100;2022-07-01T21:24:31;;;;36.88852
62107;BMP280;48087;32.600;-97.100;2022-07-01T21:29:36;;;;36.832964999999994
62107;BMP280;48087;32.600;-97.100;2022-07-01T21:34:41;;;;37.221849999999996
62107;BMP280;48087;32.600;-97.100;2022-07-01T21:39:43;;;;36.999629999999996
62107;BMP280;48087;32.600;-97.100;2022-07-01T21:44:49;;;;37.7774
62107;BMP280;48087;32.600;-97.100;2022-07-01T21:49:52;;;;38.22184
62107;BMP280;48087;32.600;-97.100;2022-07-01T21:54:56;;;;38.44406
62107;BMP280;48087;32.600;-97.100;2022-07-01T22:00:00;;;;37.221849999999996
62107;BMP280;48087;32.600;-97.100;2022-07-01T22:05:04;;;;36.22186
62107;BMP280;48087;32.600;-97.100;2022-07-01T22:10:08;;;;35.99964
62107;BMP280;48087;32.600;-97.100;2022-07-01T22:15:12;;;;37.221849999999996
62107;BMP280;48087;32.600;-97.100;2022-07-01T22:20:16;;;;37.721845
62107;BMP280;48087;32.600;-97.100;2022-07-01T22:25:21;;;;38.277395000000006
62107;BMP280;48087;32.600;-97.100;2022-07-01T22:30:24;;;;37.832955
62107;BMP280;48087;32.600;-97.100;2022-07-01T22:35:29;;;;38.11073
62107;BMP280;48087;32.600;-97.100;2022-07-01T22:40:31;;;;38.33295
62107;BMP280;48087;32.600;-97.100;2022-07-01T22:45:38;;;;36.555189999999996
62107;BMP280;48087;32.600;-97.100;2022-07-01T22:50:39;;;;35.832975
62107;BMP280;48087;32.600;-97.100;2022-07-01T22:55:45;;;;35.055204999999994
62107;BMP280;48087;32.600;-97.100;2022-07-01T23:00:48;;;;34.610765
62107;BMP280;48087;32.600;-97.100;2022-07-01T23:05:53;;;;35.944085
62107;BMP280;48087;32.600;-97.100;2022-07-01T23:10:55;;;;36.22186
62107;BMP280;48087;32.600;-97.100;2022-07-01T23:16:01;;;;35.888529999999996
62107;BMP280;48087;32.600;-97.100;2022-07-01T23:21:03;;;;36.33297
62107;BMP280;48087;32.600;-97.100;2022-07-01T23:26:08;;;;35.22187
62107;BMP280;48087;32.600;-97.100;2022-07-01T23:31:11;;;;36.166304999999994
62107;BMP280;48087;32.600;-97.100;2022-07-01T23:36:16;;;;36.610745
62107;BMP280;48087;32.600;-97.100;2022-07-01T23:41:19;;;;37.277404999999995
62107;BMP280;48087;32.600;-97.100;2022-07-01T23:46:25;;;;37.44407
62107;BMP280;48087;32.600;-97.100;2022-07-01T23:51:27;;;;36.721855
62107;BMP280;48087;32.600;-97.100;2022-07-01T23:56:33;;;;37.277404999999995
